Terminal Aerodrome Forecast
Issued by NWS Sioux Falls, SD

Home | Current Version | Previous Version | Graphics & Text | Print | Product List | Glossary On
Versions: 1 2 3 4 5 6 7 8 9 10 11 12 13 14 15 16 17 18 19 20 21 22 23 24 25 26 27 28
000
FTUS43 KFSD 152340
TAFSUX
TAF
KSUX 152340Z 1600/1624 14004KT P6SM SCT050 BKN200
     FM160300 13004KT P6SM -FZRA OVC015
     FM160600 VRB03KT 3SM -FZRA BR OVC008
     FM161400 04006KT 6SM -FZRA BKN008 OVC050
     FM161900 36009KT 1 1/2SM RA BR OVC008=

USA.gov is the U.S. government's official web portal to all federal, state and local government web resources and services.